sensor_id;sensor_type;location;lat;lon;timestamp;P1;durP1;ratioP1;P2;durP2;ratioP2
77384;SDS011;66443;49.122;8.346;2023-04-16T00:00:34;9.33;;;8.53;;
77384;SDS011;66443;49.122;8.346;2023-04-16T00:03:00;9.37;;;8.50;;
77384;SDS011;66443;49.122;8.346;2023-04-16T00:05:25;9.37;;;8.53;;
77384;SDS011;66443;49.122;8.346;2023-04-16T00:07:51;9.10;;;8.27;;
77384;SDS011;66443;49.122;8.346;2023-04-16T00:10:16;9.87;;;9.07;;
77384;SDS011;66443;49.122;8.346;2023-04-16T00:12:42;9.33;;;8.50;;
77384;SDS011;66443;49.122;8.346;2023-04-16T00:15:07;10.50;;;9.60;;
77384;SDS011;66443;49.122;8.346;2023-04-16T00:17:32;9.57;;;8.67;;
77384;SDS011;66443;49.122;8.346;2023-04-16T00:19:57;9.17;;;8.37;;
77384;SDS011;66443;49.122;8.346;2023-04-16T00:22:23;9.93;;;9.13;;
77384;SDS011;66443;49.122;8.346;2023-04-16T00:24:48;10.10;;;9.20;;
77384;SDS011;66443;49.122;8.346;2023-04-16T00:27:13;10.37;;;9.47;;
77384;SDS011;66443;49.122;8.346;2023-04-16T00:29:38;10.27;;;9.33;;
77384;SDS011;66443;49.122;8.346;2023-04-16T00:32:03;9.90;;;8.90;;
77384;SDS011;66443;49.122;8.346;2023-04-16T00:34:28;10.10;;;9.20;;
77384;SDS011;66443;49.122;8.346;2023-04-16T00:36:54;10.37;;;9.47;;
77384;SDS011;66443;49.122;8.346;2023-04-16T00:39:19;13.00;;;10.23;;
77384;SDS011;66443;49.122;8.346;2023-04-16T00:41:44;10.43;;;9.53;;
77384;SDS011;66443;49.122;8.346;2023-04-16T00:44:10;11.10;;;10.07;;
77384;SDS011;66443;49.122;8.346;2023-04-16T00:46:35;11.63;;;10.60;;
77384;SDS011;66443;49.122;8.346;2023-04-16T00:49:01;11.47;;;10.47;;
77384;SDS011;66443;49.122;8.346;2023-04-16T00:51:26;19.33;;;11.47;;
77384;SDS011;66443;49.122;8.346;2023-04-16T00:53:51;12.33;;;11.13;;
77384;SDS011;66443;49.122;8.346;2023-04-16T00:56:17;11.90;;;10.80;;
77384;SDS011;66443;49.122;8.346;2023-04-16T00:58:42;11.07;;;10.07;;
77384;SDS011;66443;49.122;8.346;2023-04-16T01:01:08;12.63;;;10.37;;
77384;SDS011;66443;49.122;8.346;2023-04-16T01:03:43;12.60;;;11.40;;
77384;SDS011;66443;49.122;8.346;2023-04-16T01:06:08;13.40;;;12.20;;
77384;SDS011;66443;49.122;8.346;2023-04-16T01:08:34;13.80;;;12.60;;
77384;SDS011;66443;49.122;8.346;2023-04-16T01:11:00;16.73;;;13.30;;
77384;SDS011;66443;49.122;8.346;2023-04-16T01:13:25;13.00;;;11.80;;
77384;SDS011;66443;49.122;8.346;2023-04-16T01:15:50;14.87;;;13.47;;
77384;SDS011;66443;49.122;8.346;2023-04-16T01:18:19;12.47;;;11.33;;
77384;SDS011;66443;49.122;8.346;2023-04-16T01:20:45;12.70;;;11.50;;
77384;SDS011;66443;49.122;8.346;2023-04-16T01:23:11;16.10;;;14.47;;
77384;SDS011;66443;49.122;8.346;2023-04-16T01:25:36;12.67;;;11.57;;
77384;SDS011;66443;49.122;8.346;2023-04-16T01:28:01;12.67;;;11.47;;
77384;SDS011;66443;49.122;8.346;2023-04-16T01:30:26;15.00;;;13.37;;
77384;SDS011;66443;49.122;8.346;2023-04-16T01:32:52;13.57;;;12.37;;
77384;SDS011;66443;49.122;8.346;2023-04-16T01:35:17;15.97;;;12.83;;
77384;SDS011;66443;49.122;8.346;2023-04-16T01:37:42;14.17;;;12.77;;
77384;SDS011;66443;49.122;8.346;2023-04-16T01:40:08;14.73;;;13.33;;
77384;SDS011;66443;49.122;8.346;2023-04-16T01:42:33;14.60;;;13.10;;
77384;SDS011;66443;49.122;8.346;2023-04-16T01:44:58;13.23;;;12.10;;
77384;SDS011;66443;49.122;8.346;2023-04-16T01:47:23;14.53;;;13.03;;
77384;SDS011;66443;49.122;8.346;2023-04-16T01:49:49;14.03;;;12.57;;
77384;SDS011;66443;49.122;8.346;2023-04-16T01:52:14;13.97;;;12.33;;
77384;SDS011;66443;49.122;8.346;2023-04-16T01:54:39;17.30;;;15.60;;
77384;SDS011;66443;49.122;8.346;2023-04-16T01:57:04;17.90;;;16.03;;
77384;SDS011;66443;49.122;8.346;2023-04-16T01:59:29;16.47;;;13.67;;
77384;SDS011;66443;49.122;8.346;2023-04-16T02:01:55;16.30;;;14.83;;
77384;SDS011;66443;49.122;8.346;2023-04-16T02:04:20;17.63;;;15.83;;
77384;SDS011;66443;49.122;8.346;2023-04-16T02:06:45;18.87;;;15.83;;
77384;SDS011;66443;49.122;8.346;2023-04-16T02:09:11;14.20;;;12.80;;
77384;SDS011;66443;49.122;8.346;2023-04-16T02:11:36;14.60;;;13.00;;
77384;SDS011;66443;49.122;8.346;2023-04-16T02:14:01;15.30;;;13.70;;
77384;SDS011;66443;49.122;8.346;2023-04-16T02:16:26;14.87;;;13.47;;
77384;SDS011;66443;49.122;8.346;2023-04-16T02:18:51;15.00;;;13.50;;
77384;SDS011;66443;49.122;8.346;2023-04-16T02:21:16;15.70;;;14.20;;
77384;SDS011;66443;49.122;8.346;2023-04-16T02:23:42;15.47;;;13.90;;
77384;SDS011;66443;49.122;8.346;2023-04-16T02:26:11;14.53;;;13.23;;
77384;SDS011;66443;49.122;8.346;2023-04-16T02:28:37;15.17;;;13.77;;
77384;SDS011;66443;49.122;8.346;2023-04-16T02:31:02;14.97;;;13.53;;
77384;SDS011;66443;49.122;8.346;2023-04-16T02:33:27;15.07;;;13.60;;
77384;SDS011;66443;49.122;8.346;2023-04-16T02:35:53;15.77;;;14.27;;
77384;SDS011;66443;49.122;8.346;2023-04-16T02:38:18;16.47;;;14.87;;
77384;SDS011;66443;49.122;8.346;2023-04-16T02:40:43;17.60;;;15.47;;
77384;SDS011;66443;49.122;8.346;2023-04-16T02:43:08;17.20;;;14.13;;
77384;SDS011;66443;49.122;8.346;2023-04-16T02:45:33;15.27;;;13.83;;
77384;SDS011;66443;49.122;8.346;2023-04-16T02:47:59;17.87;;;16.17;;
77384;SDS011;66443;49.122;8.346;2023-04-16T02:50:24;16.90;;;15.30;;
77384;SDS011;66443;49.122;8.346;2023-04-16T02:52:49;16.10;;;14.50;;
77384;SDS011;66443;49.122;8.346;2023-04-16T02:55:15;16.63;;;15.00;;
77384;SDS011;66443;49.122;8.346;2023-04-16T02:57:40;16.03;;;14.43;;
77384;SDS011;66443;49.122;8.346;2023-04-16T03:00:06;16.87;;;15.17;;
77384;SDS011;66443;49.122;8.346;2023-04-16T03:02:32;17.60;;;15.10;;
77384;SDS011;66443;49.122;8.346;2023-04-16T03:04:57;16.10;;;14.50;;
77384;SDS011;66443;49.122;8.346;2023-04-16T03:07:22;16.27;;;14.67;;
77384;SDS011;66443;49.122;8.346;2023-04-16T03:09:47;15.63;;;14.00;;
77384;SDS011;66443;49.122;8.346;2023-04-16T03:12:12;15.63;;;14.07;;
77384;SDS011;66443;49.122;8.346;2023-04-16T03:14:37;15.30;;;13.70;;
77384;SDS011;66443;49.122;8.346;2023-04-16T03:17:03;15.23;;;13.63;;
77384;SDS011;66443;49.122;8.346;2023-04-16T03:19:28;15.67;;;14.27;;
77384;SDS011;66443;49.122;8.346;2023-04-16T03:21:53;13.47;;;12.27;;
77384;SDS011;66443;49.122;8.346;2023-04-16T03:24:18;15.50;;;12.97;;
77384;SDS011;66443;49.122;8.346;2023-04-16T03:26:43;14.33;;;12.83;;
77384;SDS011;66443;49.122;8.346;2023-04-16T03:29:09;12.73;;;11.52;;
77384;SDS011;66443;49.122;8.346;2023-04-16T03:31:34;13.27;;;11.93;;
77384;SDS011;66443;49.122;8.346;2023-04-16T03:33:59;12.67;;;11.37;;
77384;SDS011;66443;49.122;8.346;2023-04-16T03:36:24;12.57;;;11.33;;
77384;SDS011;66443;49.122;8.346;2023-04-16T03:38:51;11.93;;;10.73;;
77384;SDS011;66443;49.122;8.346;2023-04-16T03:41:16;12.97;;;11.70;;
77384;SDS011;66443;49.122;8.346;2023-04-16T03:43:41;12.27;;;11.07;;
77384;SDS011;66443;49.122;8.346;2023-04-16T03:46:06;12.30;;;11.10;;
77384;SDS011;66443;49.122;8.346;2023-04-16T03:48:32;11.80;;;10.63;;
77384;SDS011;66443;49.122;8.346;2023-04-16T03:50:57;13.40;;;11.23;;
77384;SDS011;66443;49.122;8.346;2023-04-16T03:53:22;12.10;;;11.00;;
77384;SDS011;66443;49.122;8.346;2023-04-16T03:55:50;12.23;;;10.93;;
77384;SDS011;66443;49.122;8.346;2023-04-16T03:58:16;16.07;;;11.37;;
77384;SDS011;66443;49.122;8.346;2023-04-16T04:00:41;10.20;;;9.20;;
77384;SDS011;66443;49.122;8.346;2023-04-16T04:03:07;12.83;;;11.10;;
77384;SDS011;66443;49.122;8.346;2023-04-16T04:05:38;10.87;;;9.77;;
77384;SDS011;66443;49.122;8.346;2023-04-16T04:08:04;13.07;;;10.73;;
77384;SDS011;66443;49.122;8.346;2023-04-16T04:10:33;12.67;;;10.73;;
77384;SDS011;66443;49.122;8.346;2023-04-16T04:12:58;11.40;;;10.30;;
77384;SDS011;66443;49.122;8.346;2023-04-16T04:15:24;11.87;;;10.37;;
77384;SDS011;66443;49.122;8.346;2023-04-16T04:17:49;10.90;;;9.80;;
77384;SDS011;66443;49.122;8.346;2023-04-16T04:20:14;11.90;;;10.43;;
77384;SDS011;66443;49.122;8.346;2023-04-16T04:22:40;12.27;;;11.07;;
77384;SDS011;66443;49.122;8.346;2023-04-16T04:25:05;11.20;;;10.03;;
77384;SDS011;66443;49.122;8.346;2023-04-16T04:27:30;12.90;;;9.87;;
77384;SDS011;66443;49.122;8.346;2023-04-16T04:29:56;12.40;;;11.20;;
77384;SDS011;66443;49.122;8.346;2023-04-16T04:32:21;11.77;;;10.60;;
77384;SDS011;66443;49.122;8.346;2023-04-16T04:34:46;11.87;;;10.67;;
77384;SDS011;66443;49.122;8.346;2023-04-16T04:37:11;11.97;;;10.70;;
77384;SDS011;66443;49.122;8.346;2023-04-16T04:39:37;10.60;;;9.50;;
77384;SDS011;66443;49.122;8.346;2023-04-16T04:42:02;11.43;;;10.00;;
77384;SDS011;66443;49.122;8.346;2023-04-16T04:44:27;12.37;;;11.17;;
77384;SDS011;66443;49.122;8.346;2023-04-16T04:46:52;12.00;;;10.80;;
77384;SDS011;66443;49.122;8.346;2023-04-16T04:49:17;11.60;;;10.40;;
77384;SDS011;66443;49.122;8.346;2023-04-16T04:51:43;11.13;;;10.00;;
77384;SDS011;66443;49.122;8.346;2023-04-16T04:54:08;13.90;;;10.93;;
77384;SDS011;66443;49.122;8.346;2023-04-16T04:56:33;12.77;;;10.50;;
77384;SDS011;66443;49.122;8.346;2023-04-16T04:58:58;12.10;;;9.10;;
77384;SDS011;66443;49.122;8.346;2023-04-16T05:01:23;11.50;;;10.30;;
77384;SDS011;66443;49.122;8.346;2023-04-16T05:03:49;10.80;;;9.53;;
77384;SDS011;66443;49.122;8.346;2023-04-16T05:06:14;11.57;;;9.83;;
77384;SDS011;66443;49.122;8.346;2023-04-16T05:08:40;11.73;;;10.63;;
77384;SDS011;66443;49.122;8.346;2023-04-16T05:11:05;15.03;;;10.43;;
77384;SDS011;66443;49.122;8.346;2023-04-16T05:13:30;12.73;;;10.90;;
77384;SDS011;66443;49.122;8.346;2023-04-16T05:15:55;13.17;;;11.17;;
77384;SDS011;66443;49.122;8.346;2023-04-16T05:18:20;12.50;;;11.20;;
77384;SDS011;66443;49.122;8.346;2023-04-16T05:20:46;10.90;;;9.90;;
77384;SDS011;66443;49.122;8.346;2023-04-16T05:23:11;12.53;;;10.30;;
77384;SDS011;66443;49.122;8.346;2023-04-16T05:25:36;11.33;;;10.23;;
77384;SDS011;66443;49.122;8.346;2023-04-16T05:28:01;12.13;;;10.43;;
77384;SDS011;66443;49.122;8.346;2023-04-16T05:30:26;12.17;;;10.90;;
77384;SDS011;66443;49.122;8.346;2023-04-16T05:32:51;12.87;;;11.53;;
77384;SDS011;66443;49.122;8.346;2023-04-16T05:35:17;12.20;;;10.53;;
77384;SDS011;66443;49.122;8.346;2023-04-16T05:37:42;12.03;;;10.83;;
77384;SDS011;66443;49.122;8.346;2023-04-16T05:40:07;13.27;;;11.33;;
77384;SDS011;66443;49.122;8.346;2023-04-16T05:42:32;11.63;;;10.43;;
77384;SDS011;66443;49.122;8.346;2023-04-16T05:44:58;14.03;;;10.90;;
77384;SDS011;66443;49.122;8.346;2023-04-16T05:47:23;14.60;;;10.77;;
77384;SDS011;66443;49.122;8.346;2023-04-16T05:49:48;11.00;;;9.67;;
77384;SDS011;66443;49.122;8.346;2023-04-16T05:52:13;12.07;;;10.87;;
77384;SDS011;66443;49.122;8.346;2023-04-16T05:54:39;11.63;;;10.40;;
77384;SDS011;66443;49.122;8.346;2023-04-16T05:57:04;12.73;;;10.67;;
77384;SDS011;66443;49.122;8.346;2023-04-16T05:59:29;14.70;;;10.93;;
77384;SDS011;66443;49.122;8.346;2023-04-16T06:01:55;11.30;;;10.13;;
77384;SDS011;66443;49.122;8.346;2023-04-16T06:04:20;11.13;;;9.73;;
77384;SDS011;66443;49.122;8.346;2023-04-16T06:06:45;11.20;;;8.77;;
77384;SDS011;66443;49.122;8.346;2023-04-16T06:09:11;9.07;;;8.03;;
77384;SDS011;66443;49.122;8.346;2023-04-16T06:11:36;8.57;;;7.50;;
77384;SDS011;66443;49.122;8.346;2023-04-16T06:14:01;9.43;;;8.53;;
77384;SDS011;66443;49.122;8.346;2023-04-16T06:16:26;9.87;;;8.87;;
77384;SDS011;66443;49.122;8.346;2023-04-16T06:18:51;10.93;;;9.27;;
77384;SDS011;66443;49.122;8.346;2023-04-16T06:21:17;8.47;;;7.63;;
77384;SDS011;66443;49.122;8.346;2023-04-16T06:23:43;9.07;;;8.13;;
77384;SDS011;66443;49.122;8.346;2023-04-16T06:26:08;8.77;;;7.87;;
77384;SDS011;66443;49.122;8.346;2023-04-16T06:28:33;8.40;;;7.50;;
77384;SDS011;66443;49.122;8.346;2023-04-16T06:30:58;9.20;;;8.30;;
77384;SDS011;66443;49.122;8.346;2023-04-16T06:33:24;9.73;;;8.73;;
77384;SDS011;66443;49.122;8.346;2023-04-16T06:35:49;8.67;;;7.80;;
77384;SDS011;66443;49.122;8.346;2023-04-16T06:38:14;8.43;;;7.57;;
77384;SDS011;66443;49.122;8.346;2023-04-16T06:40:40;8.23;;;7.37;;
77384;SDS011;66443;49.122;8.346;2023-04-16T06:43:05;8.13;;;7.13;;
77384;SDS011;66443;49.122;8.346;2023-04-16T06:45:30;9.43;;;8.07;;
77384;SDS011;66443;49.122;8.346;2023-04-16T06:47:55;8.97;;;8.17;;
77384;SDS011;66443;49.122;8.346;2023-04-16T06:50:22;8.00;;;7.13;;
77384;SDS011;66443;49.122;8.346;2023-04-16T06:52:48;8.70;;;7.80;;
77384;SDS011;66443;49.122;8.346;2023-04-16T06:55:13;9.37;;;8.27;;
77384;SDS011;66443;49.122;8.346;2023-04-16T06:57:39;8.17;;;7.40;;
77384;SDS011;66443;49.122;8.346;2023-04-16T07:00:04;8.03;;;7.23;;
77384;SDS011;66443;49.122;8.346;2023-04-16T07:02:30;8.70;;;7.90;;
77384;SDS011;66443;49.122;8.346;2023-04-16T07:04:55;7.97;;;7.17;;
77384;SDS011;66443;49.122;8.346;2023-04-16T07:07:20;7.87;;;7.13;;
77384;SDS011;66443;49.122;8.346;2023-04-16T07:09:45;7.60;;;6.80;;
77384;SDS011;66443;49.122;8.346;2023-04-16T07:12:10;6.83;;;6.13;;
77384;SDS011;66443;49.122;8.346;2023-04-16T07:14:36;7.87;;;7.07;;
77384;SDS011;66443;49.122;8.346;2023-04-16T07:17:01;8.03;;;7.13;;
77384;SDS011;66443;49.122;8.346;2023-04-16T07:19:26;8.50;;;7.43;;
77384;SDS011;66443;49.122;8.346;2023-04-16T07:21:54;9.43;;;6.83;;
77384;SDS011;66443;49.122;8.346;2023-04-16T07:24:19;7.00;;;6.30;;
77384;SDS011;66443;49.122;8.346;2023-04-16T07:26:44;7.57;;;6.83;;
77384;SDS011;66443;49.122;8.346;2023-04-16T07:29:10;8.00;;;7.13;;
77384;SDS011;66443;49.122;8.346;2023-04-16T07:31:35;7.77;;;6.97;;
77384;SDS011;66443;49.122;8.346;2023-04-16T07:34:00;7.07;;;6.37;;
77384;SDS011;66443;49.122;8.346;2023-04-16T07:36:25;7.57;;;6.77;;
77384;SDS011;66443;49.122;8.346;2023-04-16T07:38:52;8.83;;;7.67;;
77384;SDS011;66443;49.122;8.346;2023-04-16T07:41:17;8.03;;;6.70;;
77384;SDS011;66443;49.122;8.346;2023-04-16T07:43:42;8.17;;;7.37;;
77384;SDS011;66443;49.122;8.346;2023-04-16T07:46:07;8.23;;;7.43;;
77384;SDS011;66443;49.122;8.346;2023-04-16T07:48:32;8.27;;;7.40;;
77384;SDS011;66443;49.122;8.346;2023-04-16T07:50:58;7.93;;;7.10;;
77384;SDS011;66443;49.122;8.346;2023-04-16T07:53:23;8.23;;;7.37;;
77384;SDS011;66443;49.122;8.346;2023-04-16T07:55:48;8.63;;;7.57;;
77384;SDS011;66443;49.122;8.346;2023-04-16T07:58:13;7.50;;;6.70;;
77384;SDS011;66443;49.122;8.346;2023-04-16T08:00:38;10.47;;;8.10;;
77384;SDS011;66443;49.122;8.346;2023-04-16T08:03:03;10.23;;;7.60;;
77384;SDS011;66443;49.122;8.346;2023-04-16T08:05:29;6.90;;;6.23;;
77384;SDS011;66443;49.122;8.346;2023-04-16T08:07:54;7.53;;;6.80;;
77384;SDS011;66443;49.122;8.346;2023-04-16T08:10:19;8.03;;;7.23;;
77384;SDS011;66443;49.122;8.346;2023-04-16T08:12:44;7.70;;;6.93;;
77384;SDS011;66443;49.122;8.346;2023-04-16T08:15:10;8.60;;;7.63;;
77384;SDS011;66443;49.122;8.346;2023-04-16T08:17:35;7.83;;;7.13;;
77384;SDS011;66443;49.122;8.346;2023-04-16T08:20:01;7.53;;;6.73;;
77384;SDS011;66443;49.122;8.346;2023-04-16T08:22:26;7.90;;;7.17;;
77384;SDS011;66443;49.122;8.346;2023-04-16T08:24:52;10.20;;;7.77;;
77384;SDS011;66443;49.122;8.346;2023-04-16T08:27:17;8.27;;;7.47;;
77384;SDS011;66443;49.122;8.346;2023-04-16T08:29:42;8.33;;;7.40;;
77384;SDS011;66443;49.122;8.346;2023-04-16T08:32:07;7.57;;;6.87;;
77384;SDS011;66443;49.122;8.346;2023-04-16T08:34:34;7.83;;;7.13;;
77384;SDS011;66443;49.122;8.346;2023-04-16T08:36:59;7.17;;;6.40;;
77384;SDS011;66443;49.122;8.346;2023-04-16T08:39:24;8.50;;;7.60;;
77384;SDS011;66443;49.122;8.346;2023-04-16T08:41:49;7.47;;;6.77;;
77384;SDS011;66443;49.122;8.346;2023-04-16T08:44:20;7.77;;;6.97;;
77384;SDS011;66443;49.122;8.346;2023-04-16T08:46:45;10.53;;;7.80;;
77384;SDS011;66443;49.122;8.346;2023-04-16T08:49:13;8.83;;;7.73;;
77384;SDS011;66443;49.122;8.346;2023-04-16T08:51:39;8.50;;;7.60;;
77384;SDS011;66443;49.122;8.346;2023-04-16T08:54:09;9.00;;;6.80;;
77384;SDS011;66443;49.122;8.346;2023-04-16T08:56:36;7.83;;;7.13;;
77384;SDS011;66443;49.122;8.346;2023-04-16T08:59:01;9.37;;;7.27;;
77384;SDS011;66443;49.122;8.346;2023-04-16T09:01:29;8.40;;;7.03;;
77384;SDS011;66443;49.122;8.346;2023-04-16T09:03:55;9.13;;;7.37;;
77384;SDS011;66443;49.122;8.346;2023-04-16T09:06:20;9.60;;;8.70;;
77384;SDS011;66443;49.122;8.346;2023-04-16T09:08:45;8.67;;;7.63;;
77384;SDS011;66443;49.122;8.346;2023-04-16T09:11:18;9.20;;;8.20;;
77384;SDS011;66443;49.122;8.346;2023-04-16T09:13:44;8.77;;;7.63;;
77384;SDS011;66443;49.122;8.346;2023-04-16T09:16:09;10.10;;;9.10;;
77384;SDS011;66443;49.122;8.346;2023-04-16T09:18:36;7.93;;;6.60;;
77384;SDS011;66443;49.122;8.346;2023-04-16T09:21:01;9.10;;;6.70;;
77384;SDS011;66443;49.122;8.346;2023-04-16T09:23:28;8.17;;;7.37;;
77384;SDS011;66443;49.122;8.346;2023-04-16T09:25:53;7.53;;;6.80;;
77384;SDS011;66443;49.122;8.346;2023-04-16T09:31:10;9.80;;;7.37;;
77384;SDS011;66443;49.122;8.346;2023-04-16T09:33:36;8.67;;;7.03;;
77384;SDS011;66443;49.122;8.346;2023-04-16T09:36:01;8.03;;;6.80;;
77384;SDS011;66443;49.122;8.346;2023-04-16T09:38:27;8.10;;;7.30;;
77384;SDS011;66443;49.122;8.346;2023-04-16T09:41:09;6.63;;;6.03;;
77384;SDS011;66443;49.122;8.346;2023-04-16T09:43:34;8.97;;;7.27;;
77384;SDS011;66443;49.122;8.346;2023-04-16T09:46:00;7.43;;;6.73;;
77384;SDS011;66443;49.122;8.346;2023-04-16T09:48:28;8.47;;;6.97;;
77384;SDS011;66443;49.122;8.346;2023-04-16T09:50:54;7.40;;;6.70;;
77384;SDS011;66443;49.122;8.346;2023-04-16T09:53:23;8.40;;;7.50;;
77384;SDS011;66443;49.122;8.346;2023-04-16T09:55:50;7.60;;;6.87;;
77384;SDS011;66443;49.122;8.346;2023-04-16T09:58:17;8.40;;;7.60;;
77384;SDS011;66443;49.122;8.346;2023-04-16T10:00:42;8.37;;;7.47;;
77384;SDS011;66443;49.122;8.346;2023-04-16T10:03:08;7.53;;;6.80;;
77384;SDS011;66443;49.122;8.346;2023-04-16T10:05:33;13.63;;;7.87;;
77384;SDS011;66443;49.122;8.346;2023-04-16T10:07:58;6.87;;;6.27;;
77384;SDS011;66443;49.122;8.346;2023-04-16T10:10:24;7.83;;;7.10;;
77384;SDS011;66443;49.122;8.346;2023-04-16T10:12:49;7.63;;;6.83;;
77384;SDS011;66443;49.122;8.346;2023-04-16T10:15:15;8.00;;;7.30;;
77384;SDS011;66443;49.122;8.346;2023-04-16T10:17:40;9.43;;;7.20;;
77384;SDS011;66443;49.122;8.346;2023-04-16T10:20:06;9.03;;;8.10;;
77384;SDS011;66443;49.122;8.346;2023-04-16T10:22:32;8.20;;;7.40;;
77384;SDS011;66443;49.122;8.346;2023-04-16T10:24:57;7.80;;;7.00;;
77384;SDS011;66443;49.122;8.346;2023-04-16T10:27:22;8.07;;;7.03;;
77384;SDS011;66443;49.122;8.346;2023-04-16T10:29:48;7.37;;;6.67;;
77384;SDS011;66443;49.122;8.346;2023-04-16T10:32:13;8.27;;;7.47;;
77384;SDS011;66443;49.122;8.346;2023-04-16T10:34:40;7.10;;;6.40;;
77384;SDS011;66443;49.122;8.346;2023-04-16T10:37:05;7.63;;;6.93;;
77384;SDS011;66443;49.122;8.346;2023-04-16T10:39:30;8.73;;;7.27;;
77384;SDS011;66443;49.122;8.346;2023-04-16T10:42:08;7.97;;;7.23;;
77384;SDS011;66443;49.122;8.346;2023-04-16T10:44:33;11.87;;;10.70;;
77384;SDS011;66443;49.122;8.346;2023-04-16T10:46:59;7.97;;;7.27;;
77384;SDS011;66443;49.122;8.346;2023-04-16T10:49:24;8.17;;;7.37;;
77384;SDS011;66443;49.122;8.346;2023-04-16T10:51:54;8.77;;;7.87;;
77384;SDS011;66443;49.122;8.346;2023-04-16T10:54:29;7.60;;;6.90;;
77384;SDS011;66443;49.122;8.346;2023-04-16T10:56:56;8.93;;;7.57;;
77384;SDS011;66443;49.122;8.346;2023-04-16T10:59:21;7.30;;;6.60;;
77384;SDS011;66443;49.122;8.346;2023-04-16T11:01:48;9.30;;;8.23;;
77384;SDS011;66443;49.122;8.346;2023-04-16T11:10:10;8.60;;;7.53;;
77384;SDS011;66443;49.122;8.346;2023-04-16T11:12:17;9.63;;;7.53;;
77384;SDS011;66443;49.122;8.346;2023-04-16T11:14:46;7.23;;;6.60;;
77384;SDS011;66443;49.122;8.346;2023-04-16T11:17:12;9.33;;;8.43;;
77384;SDS011;66443;49.122;8.346;2023-04-16T11:19:37;11.63;;;8.20;;
77384;SDS011;66443;49.122;8.346;2023-04-16T11:22:02;8.40;;;7.57;;
77384;SDS011;66443;49.122;8.346;2023-04-16T11:24:28;8.43;;;7.50;;
77384;SDS011;66443;49.122;8.346;2023-04-16T11:26:54;8.80;;;8.00;;
77384;SDS011;66443;49.122;8.346;2023-04-16T11:29:19;8.33;;;7.37;;
77384;SDS011;66443;49.122;8.346;2023-04-16T11:31:49;9.17;;;8.00;;
77384;SDS011;66443;49.122;8.346;2023-04-16T11:34:14;9.70;;;8.80;;
77384;SDS011;66443;49.122;8.346;2023-04-16T11:36:44;10.17;;;8.33;;
77384;SDS011;66443;49.122;8.346;2023-04-16T11:39:10;8.67;;;7.77;;
77384;SDS011;66443;49.122;8.346;2023-04-16T11:41:41;9.00;;;8.10;;
77384;SDS011;66443;49.122;8.346;2023-04-16T11:47:01;8.87;;;8.00;;
77384;SDS011;66443;49.122;8.346;2023-04-16T11:49:29;10.50;;;9.60;;
77384;SDS011;66443;49.122;8.346;2023-04-16T11:51:55;10.20;;;7.83;;
77384;SDS011;66443;49.122;8.346;2023-04-16T11:54:21;11.23;;;9.47;;
77384;SDS011;66443;49.122;8.346;2023-04-16T11:56:47;7.30;;;6.60;;
77384;SDS011;66443;49.122;8.346;2023-04-16T11:59:14;8.43;;;7.63;;
77384;SDS011;66443;49.122;8.346;2023-04-16T12:01:40;8.87;;;7.53;;
77384;SDS011;66443;49.122;8.346;2023-04-16T12:04:05;8.63;;;7.17;;
77384;SDS011;66443;49.122;8.346;2023-04-16T12:06:31;9.00;;;7.80;;
77384;SDS011;66443;49.122;8.346;2023-04-16T12:08:56;10.50;;;7.60;;
77384;SDS011;66443;49.122;8.346;2023-04-16T12:11:36;11.93;;;8.67;;
77384;SDS011;66443;49.122;8.346;2023-04-16T12:14:10;8.93;;;8.03;;
77384;SDS011;66443;49.122;8.346;2023-04-16T12:16:36;7.70;;;7.00;;
77384;SDS011;66443;49.122;8.346;2023-04-16T12:19:01;7.50;;;6.80;;
77384;SDS011;66443;49.122;8.346;2023-04-16T12:24:02;9.70;;;8.50;;
77384;SDS011;66443;49.122;8.346;2023-04-16T12:26:34;9.37;;;8.47;;
77384;SDS011;66443;49.122;8.346;2023-04-16T12:29:12;8.73;;;7.93;;
77384;SDS011;66443;49.122;8.346;2023-04-16T12:31:38;8.83;;;7.93;;
77384;SDS011;66443;49.122;8.346;2023-04-16T12:34:03;9.67;;;8.13;;
77384;SDS011;66443;49.122;8.346;2023-04-16T12:36:28;11.37;;;8.87;;
77384;SDS011;66443;49.122;8.346;2023-04-16T12:38:53;8.97;;;8.07;;
77384;SDS011;66443;49.122;8.346;2023-04-16T12:41:19;8.60;;;7.80;;
77384;SDS011;66443;49.122;8.346;2023-04-16T12:43:44;7.70;;;7.00;;
77384;SDS011;66443;49.122;8.346;2023-04-16T12:46:09;23.17;;;19.03;;
77384;SDS011;66443;49.122;8.346;2023-04-16T12:48:34;8.13;;;7.37;;
77384;SDS011;66443;49.122;8.346;2023-04-16T12:51:00;9.10;;;8.20;;
77384;SDS011;66443;49.122;8.346;2023-04-16T12:53:25;10.83;;;9.13;;
77384;SDS011;66443;49.122;8.346;2023-04-16T12:55:51;10.90;;;9.83;;
77384;SDS011;66443;49.122;8.346;2023-04-16T12:58:16;10.43;;;9.43;;
77384;SDS011;66443;49.122;8.346;2023-04-16T13:00:41;9.53;;;8.60;;
77384;SDS011;66443;49.122;8.346;2023-04-16T13:03:06;9.40;;;8.50;;
77384;SDS011;66443;49.122;8.346;2023-04-16T13:05:31;9.10;;;8.20;;
77384;SDS011;66443;49.122;8.346;2023-04-16T13:07:56;9.93;;;8.93;;
77384;SDS011;66443;49.122;8.346;2023-04-16T13:10:22;11.50;;;10.43;;
77384;SDS011;66443;49.122;8.346;2023-04-16T13:12:47;9.97;;;9.07;;
77384;SDS011;66443;49.122;8.346;2023-04-16T13:15:12;10.47;;;8.87;;
77384;SDS011;66443;49.122;8.346;2023-04-16T13:17:37;10.13;;;9.07;;
77384;SDS011;66443;49.122;8.346;2023-04-16T13:20:03;10.33;;;9.33;;
77384;SDS011;66443;49.122;8.346;2023-04-16T13:22:28;9.60;;;8.60;;
77384;SDS011;66443;49.122;8.346;2023-04-16T13:24:53;9.87;;;8.87;;
77384;SDS011;66443;49.122;8.346;2023-04-16T13:27:19;10.77;;;9.77;;
77384;SDS011;66443;49.122;8.346;2023-04-16T13:29:44;11.23;;;10.03;;
77384;SDS011;66443;49.122;8.346;2023-04-16T13:32:09;11.80;;;10.70;;
77384;SDS011;66443;49.122;8.346;2023-04-16T13:34:37;11.50;;;10.40;;
77384;SDS011;66443;49.122;8.346;2023-04-16T13:37:02;12.67;;;10.70;;
77384;SDS011;66443;49.122;8.346;2023-04-16T13:39:27;11.67;;;9.93;;
77384;SDS011;66443;49.122;8.346;2023-04-16T13:41:53;12.30;;;10.90;;
77384;SDS011;66443;49.122;8.346;2023-04-16T13:44:18;11.70;;;10.47;;
77384;SDS011;66443;49.122;8.346;2023-04-16T13:46:43;11.97;;;10.87;;
77384;SDS011;66443;49.122;8.346;2023-04-16T13:49:11;10.83;;;9.73;;
77384;SDS011;66443;49.122;8.346;2023-04-16T13:51:36;14.00;;;10.67;;
77384;SDS011;66443;49.122;8.346;2023-04-16T13:54:01;12.63;;;11.40;;
77384;SDS011;66443;49.122;8.346;2023-04-16T13:56:27;12.03;;;10.83;;
77384;SDS011;66443;49.122;8.346;2023-04-16T13:58:52;12.43;;;11.13;;
77384;SDS011;66443;49.122;8.346;2023-04-16T14:01:17;13.10;;;11.60;;
77384;SDS011;66443;49.122;8.346;2023-04-16T14:03:42;12.73;;;11.40;;
77384;SDS011;66443;49.122;8.346;2023-04-16T14:06:08;12.03;;;9.83;;
77384;SDS011;66443;49.122;8.346;2023-04-16T14:08:33;12.50;;;10.57;;
77384;SDS011;66443;49.122;8.346;2023-04-16T14:10:58;13.13;;;11.30;;
77384;SDS011;66443;49.122;8.346;2023-04-16T14:13:23;11.43;;;10.23;;
77384;SDS011;66443;49.122;8.346;2023-04-16T14:15:49;13.33;;;11.73;;
77384;SDS011;66443;49.122;8.346;2023-04-16T14:18:14;13.70;;;11.67;;
77384;SDS011;66443;49.122;8.346;2023-04-16T14:20:40;13.60;;;10.70;;
77384;SDS011;66443;49.122;8.346;2023-04-16T14:23:05;13.80;;;12.03;;
77384;SDS011;66443;49.122;8.346;2023-04-16T14:25:30;13.93;;;12.10;;
77384;SDS011;66443;49.122;8.346;2023-04-16T14:27:57;13.20;;;11.90;;
77384;SDS011;66443;49.122;8.346;2023-04-16T14:30:22;15.07;;;13.57;;
77384;SDS011;66443;49.122;8.346;2023-04-16T14:32:48;14.00;;;12.60;;
77384;SDS011;66443;49.122;8.346;2023-04-16T14:35:13;14.60;;;12.90;;
77384;SDS011;66443;49.122;8.346;2023-04-16T14:37:38;14.40;;;12.97;;
77384;SDS011;66443;49.122;8.346;2023-04-16T14:40:04;17.30;;;14.37;;